DLH24HB EDDF-LEMG
Flight info
| Callsign | DLH24HB |
|---|---|
| Flight time | N/A |
| Altitude | 34000 |
| Route | ANEKI2L/18 ANEKI Y163 HERBI Y164 MOPAN DCT LUTIX DCT BENOT DCT NEMOS DCT NINTU DCT MEBAK DCT REPSI DCT LERGA DCT MINSO DCT NARAK DCT AGN DCT MAQAB DCT TIVLI DCT ELSAP DCT ZAR DCT EXEMU DCT PISUS DCT EDIMU DCT ADUXO DCT NUSGO DCT OBIBO DCT NASOS L27 BLN |
| Aircraft | A321/M-SDE3FGHIRWY/LB1 |
Departure
| Time | 2026-05-05 12:06 |
|---|---|
| Airport | Frankfurt Main Airport (EDDF) |
Arrival
| Time | N/A |
|---|---|
| Airport | Málaga-Costa del Sol Airport (LEMG) |
| Time | Latitude | Longitude | Altitude | Speed | Heading |
|---|---|---|---|---|---|
| 2026-05-05 11:30 | 50.04456 | 8.56428 | 363 ft | 0 kts | 154° |
| 2026-05-05 11:53 | 50.04465 | 8.56421 | 358 ft | 3 kts | 158° |
| 2026-05-05 11:53 | 50.04484 | 8.56412 | 363 ft | 3 kts | 171° |
| 2026-05-05 11:54 | 50.04504 | 8.56410 | 359 ft | 3 kts | 189° |
| 2026-05-05 11:54 | 50.04523 | 8.56418 | 360 ft | 3 kts | 207° |
| 2026-05-05 11:54 | 50.04539 | 8.56432 | 358 ft | 2 kts | 215° |
| 2026-05-05 11:54 | 50.04541 | 8.56434 | 357 ft | 0 kts | 215° |
| 2026-05-05 11:59 | 50.04533 | 8.56423 | 360 ft | 5 kts | 223° |
| 2026-05-05 11:59 | 50.04510 | 8.56361 | 359 ft | 7 kts | 247° |
| 2026-05-05 11:59 | 50.04491 | 8.56284 | 357 ft | 8 kts | 250° |
| 2026-05-05 11:59 | 50.04468 | 8.56184 | 364 ft | 11 kts | 250° |
| 2026-05-05 12:00 | 50.04432 | 8.56053 | 363 ft | 14 kts | 232° |
| 2026-05-05 12:00 | 50.04344 | 8.56055 | 358 ft | 14 kts | 160° |
| 2026-05-05 12:00 | 50.04261 | 8.56027 | 359 ft | 14 kts | 242° |
| 2026-05-05 12:00 | 50.04224 | 8.55877 | 358 ft | 17 kts | 250° |
| 2026-05-05 12:01 | 50.04178 | 8.55686 | 359 ft | 20 kts | 249° |
| 2026-05-05 12:01 | 50.04123 | 8.55457 | 358 ft | 24 kts | 250° |
| 2026-05-05 12:01 | 50.04069 | 8.55230 | 358 ft | 23 kts | 249° |
| 2026-05-05 12:01 | 50.04014 | 8.55002 | 356 ft | 23 kts | 249° |
| 2026-05-05 12:02 | 50.03957 | 8.54763 | 355 ft | 24 kts | 249° |
| 2026-05-05 12:02 | 50.03897 | 8.54509 | 352 ft | 26 kts | 249° |
| 2026-05-05 12:02 | 50.03823 | 8.54289 | 350 ft | 23 kts | 235° |
| 2026-05-05 12:02 | 50.03760 | 8.54059 | 350 ft | 24 kts | 249° |
| 2026-05-05 12:03 | 50.03702 | 8.53816 | 347 ft | 24 kts | 249° |
| 2026-05-05 12:03 | 50.03641 | 8.53565 | 337 ft | 25 kts | 248° |
| 2026-05-05 12:03 | 50.03580 | 8.53319 | 339 ft | 23 kts | 249° |
| 2026-05-05 12:03 | 50.03535 | 8.53131 | 337 ft | 18 kts | 249° |
| 2026-05-05 12:04 | 50.03489 | 8.52942 | 334 ft | 19 kts | 249° |
| 2026-05-05 12:04 | 50.03433 | 8.52734 | 331 ft | 20 kts | 248° |
| 2026-05-05 12:04 | 50.03376 | 8.52611 | 332 ft | 12 kts | 207° |
| 2026-05-05 12:04 | 50.03313 | 8.52595 | 334 ft | 8 kts | 180° |
| 2026-05-05 12:05 | 50.03169 | 8.52596 | 335 ft | 48 kts | 180° |
| 2026-05-05 12:05 | 50.02606 | 8.52601 | 333 ft | 112 kts | 179° |
| 2026-05-05 12:05 | 50.01649 | 8.52609 | 333 ft | 162 kts | 180° |
| 2026-05-05 12:05 | 50.00428 | 8.52634 | 648 ft | 178 kts | 179° |
| 2026-05-05 12:06 | 49.99193 | 8.52695 | 1304 ft | 178 kts | 178° |
| 2026-05-05 12:06 | 49.97921 | 8.52772 | 1722 ft | 190 kts | 177° |
| 2026-05-05 12:06 | 49.96546 | 8.52867 | 1943 ft | 207 kts | 177° |
| 2026-05-05 12:06 | 49.95041 | 8.52979 | 2191 ft | 224 kts | 177° |
| 2026-05-05 12:07 | 49.93460 | 8.53095 | 2788 ft | 230 kts | 177° |
| 2026-05-05 12:07 | 49.91855 | 8.53210 | 3541 ft | 231 kts | 178° |
| 2026-05-05 12:07 | 49.90248 | 8.53323 | 4219 ft | 232 kts | 178° |
| 2026-05-05 12:07 | 49.88636 | 8.53434 | 4941 ft | 232 kts | 178° |
| 2026-05-05 12:08 | 49.87016 | 8.53542 | 5654 ft | 233 kts | 178° |
| 2026-05-05 12:08 | 49.85391 | 8.53654 | 6335 ft | 235 kts | 178° |
| 2026-05-05 12:08 | 49.83752 | 8.53766 | 6940 ft | 237 kts | 178° |
| 2026-05-05 12:08 | 49.82103 | 8.53876 | 7519 ft | 238 kts | 178° |
| 2026-05-05 12:09 | 49.80459 | 8.53987 | 8116 ft | 240 kts | 178° |
| 2026-05-05 12:09 | 49.78783 | 8.54102 | 8718 ft | 242 kts | 178° |
| 2026-05-05 12:09 | 49.77072 | 8.54021 | 9116 ft | 255 kts | 185° |
| 2026-05-05 12:09 | 49.75230 | 8.53781 | 9309 ft | 273 kts | 185° |
| 2026-05-05 12:10 | 49.73314 | 8.53520 | 9800 ft | 279 kts | 185° |
| 2026-05-05 12:10 | 49.71348 | 8.53251 | 10141 ft | 291 kts | 185° |
| 2026-05-05 12:10 | 49.69267 | 8.52973 | 10267 ft | 310 kts | 185° |
| 2026-05-05 12:10 | 49.67061 | 8.52682 | 10393 ft | 328 kts | 185° |
| 2026-05-05 12:11 | 49.64725 | 8.52374 | 10525 ft | 344 kts | 185° |
| 2026-05-05 12:11 | 49.62287 | 8.52052 | 10657 ft | 359 kts | 185° |
| 2026-05-05 12:11 | 49.59762 | 8.51719 | 10983 ft | 367 kts | 185° |
| 2026-05-05 12:11 | 49.57212 | 8.51379 | 11449 ft | 370 kts | 185° |
| 2026-05-05 12:12 | 49.54638 | 8.51039 | 11933 ft | 373 kts | 185° |
| 2026-05-05 12:12 | 49.52046 | 8.50698 | 12421 ft | 375 kts | 185° |
| 2026-05-05 12:12 | 49.49444 | 8.50356 | 12915 ft | 378 kts | 185° |